sensor_id;sensor_type;location;lat;lon;timestamp;temperature;humidity
23124;DHT22;11731;48.592;8.858;2023-04-03T00:02:02;4.60;99.90
23124;DHT22;11731;48.592;8.858;2023-04-03T00:04:30;4.70;99.90
23124;DHT22;11731;48.592;8.858;2023-04-03T00:06:57;4.80;99.90
23124;DHT22;11731;48.592;8.858;2023-04-03T00:09:24;5.00;99.90
23124;DHT22;11731;48.592;8.858;2023-04-03T00:11:51;5.00;99.90
23124;DHT22;11731;48.592;8.858;2023-04-03T00:14:18;5.00;99.90
23124;DHT22;11731;48.592;8.858;2023-04-03T00:16:49;5.30;99.90
23124;DHT22;11731;48.592;8.858;2023-04-03T00:19:18;5.40;99.90
23124;DHT22;11731;48.592;8.858;2023-04-03T00:21:47;5.50;99.90
23124;DHT22;11731;48.592;8.858;2023-04-03T00:24:15;5.60;99.90
23124;DHT22;11731;48.592;8.858;2023-04-03T00:26:42;5.40;99.90
23124;DHT22;11731;48.592;8.858;2023-04-03T00:29:09;5.60;99.90
23124;DHT22;11731;48.592;8.858;2023-04-03T00:31:36;5.70;99.90
23124;DHT22;11731;48.592;8.858;2023-04-03T00:34:03;5.90;99.90
23124;DHT22;11731;48.592;8.858;2023-04-03T00:36:29;6.00;99.90
23124;DHT22;11731;48.592;8.858;2023-04-03T00:38:58;6.00;99.90
23124;DHT22;11731;48.592;8.858;2023-04-03T00:41:28;5.90;99.90
23124;DHT22;11731;48.592;8.858;2023-04-03T00:43:55;6.30;99.90
23124;DHT22;11731;48.592;8.858;2023-04-03T00:47:34;6.50;99.90
23124;DHT22;11731;48.592;8.858;2023-04-03T00:52:52;6.90;99.90
23124;DHT22;11731;48.592;8.858;2023-04-03T00:55:21;7.00;99.90
23124;DHT22;11731;48.592;8.858;2023-04-03T00:57:49;7.20;99.90
23124;DHT22;11731;48.592;8.858;2023-04-03T01:00:19;7.30;99.90
23124;DHT22;11731;48.592;8.858;2023-04-03T01:02:47;7.40;99.90
23124;DHT22;11731;48.592;8.858;2023-04-03T01:05:16;7.30;99.90
23124;DHT22;11731;48.592;8.858;2023-04-03T01:07:47;7.30;99.90
23124;DHT22;11731;48.592;8.858;2023-04-03T01:10:16;7.40;99.90
23124;DHT22;11731;48.592;8.858;2023-04-03T01:12:48;7.20;99.90
23124;DHT22;11731;48.592;8.858;2023-04-03T01:15:17;6.90;99.90
23124;DHT22;11731;48.592;8.858;2023-04-03T01:17:46;6.70;99.90
23124;DHT22;11731;48.592;8.858;2023-04-03T01:20:37;6.70;99.90
23124;DHT22;11731;48.592;8.858;2023-04-03T01:23:21;6.70;99.90
23124;DHT22;11731;48.592;8.858;2023-04-03T01:25:51;6.60;99.90
23124;DHT22;11731;48.592;8.858;2023-04-03T01:28:25;6.40;99.90
23124;DHT22;11731;48.592;8.858;2023-04-03T01:30:59;6.30;99.90
23124;DHT22;11731;48.592;8.858;2023-04-03T01:33:28;6.00;99.90
23124;DHT22;11731;48.592;8.858;2023-04-03T01:35:58;5.70;99.90
23124;DHT22;11731;48.592;8.858;2023-04-03T01:38:46;5.50;99.90
23124;DHT22;11731;48.592;8.858;2023-04-03T01:41:14;5.50;99.90
23124;DHT22;11731;48.592;8.858;2023-04-03T01:43:42;5.50;99.90
23124;DHT22;11731;48.592;8.858;2023-04-03T01:46:09;5.90;99.90
23124;DHT22;11731;48.592;8.858;2023-04-03T01:48:42;6.20;99.90
23124;DHT22;11731;48.592;8.858;2023-04-03T01:51:13;6.20;99.90
23124;DHT22;11731;48.592;8.858;2023-04-03T01:53:41;6.10;99.90
23124;DHT22;11731;48.592;8.858;2023-04-03T01:56:08;6.00;99.90
23124;DHT22;11731;48.592;8.858;2023-04-03T01:58:37;6.20;99.90
23124;DHT22;11731;48.592;8.858;2023-04-03T02:01:04;6.40;99.90
23124;DHT22;11731;48.592;8.858;2023-04-03T02:03:31;6.30;99.90
23124;DHT22;11731;48.592;8.858;2023-04-03T02:05:59;6.20;99.90
23124;DHT22;11731;48.592;8.858;2023-04-03T02:11:39;5.90;99.90
23124;DHT22;11731;48.592;8.858;2023-04-03T02:14:06;6.20;99.90
23124;DHT22;11731;48.592;8.858;2023-04-03T02:16:33;5.60;99.90
23124;DHT22;11731;48.592;8.858;2023-04-03T02:19:00;5.60;99.90
23124;DHT22;11731;48.592;8.858;2023-04-03T02:21:29;5.60;99.90
23124;DHT22;11731;48.592;8.858;2023-04-03T02:23:56;5.40;99.90
23124;DHT22;11731;48.592;8.858;2023-04-03T02:26:23;5.30;99.90
23124;DHT22;11731;48.592;8.858;2023-04-03T02:28:50;5.30;99.90
23124;DHT22;11731;48.592;8.858;2023-04-03T02:31:18;5.20;99.90
23124;DHT22;11731;48.592;8.858;2023-04-03T02:33:46;5.10;99.90
23124;DHT22;11731;48.592;8.858;2023-04-03T02:36:13;5.00;99.90
23124;DHT22;11731;48.592;8.858;2023-04-03T02:38:41;5.50;99.90
23124;DHT22;11731;48.592;8.858;2023-04-03T02:41:10;5.30;99.90
23124;DHT22;11731;48.592;8.858;2023-04-03T02:43:38;5.30;99.90
23124;DHT22;11731;48.592;8.858;2023-04-03T02:46:05;5.30;99.90
23124;DHT22;11731;48.592;8.858;2023-04-03T02:48:32;4.90;99.90
23124;DHT22;11731;48.592;8.858;2023-04-03T02:50:59;4.90;99.90
23124;DHT22;11731;48.592;8.858;2023-04-03T02:53:26;4.90;99.90
23124;DHT22;11731;48.592;8.858;2023-04-03T02:55:55;4.80;99.90
23124;DHT22;11731;48.592;8.858;2023-04-03T02:58:22;4.60;99.90
23124;DHT22;11731;48.592;8.858;2023-04-03T03:00:48;4.50;99.90
23124;DHT22;11731;48.592;8.858;2023-04-03T03:03:18;4.40;99.90
23124;DHT22;11731;48.592;8.858;2023-04-03T03:05:45;4.50;99.90
23124;DHT22;11731;48.592;8.858;2023-04-03T03:08:13;4.50;99.90
23124;DHT22;11731;48.592;8.858;2023-04-03T03:10:40;4.40;99.90
23124;DHT22;11731;48.592;8.858;2023-04-03T03:13:08;4.30;99.90
23124;DHT22;11731;48.592;8.858;2023-04-03T03:15:35;3.90;99.90
23124;DHT22;11731;48.592;8.858;2023-04-03T03:18:04;3.80;99.90
23124;DHT22;11731;48.592;8.858;2023-04-03T03:20:31;3.80;99.90
23124;DHT22;11731;48.592;8.858;2023-04-03T03:22:58;3.70;99.90
23124;DHT22;11731;48.592;8.858;2023-04-03T03:25:25;3.80;99.90
23124;DHT22;11731;48.592;8.858;2023-04-03T03:27:52;3.80;99.90
23124;DHT22;11731;48.592;8.858;2023-04-03T03:30:26;3.80;99.90
23124;DHT22;11731;48.592;8.858;2023-04-03T03:36:02;4.10;99.90
23124;DHT22;11731;48.592;8.858;2023-04-03T03:38:29;4.00;99.90
23124;DHT22;11731;48.592;8.858;2023-04-03T03:40:58;4.20;99.90
23124;DHT22;11731;48.592;8.858;2023-04-03T03:43:25;4.30;99.90
23124;DHT22;11731;48.592;8.858;2023-04-03T03:45:53;4.40;99.90
23124;DHT22;11731;48.592;8.858;2023-04-03T03:48:21;4.20;99.90
23124;DHT22;11731;48.592;8.858;2023-04-03T03:50:49;4.40;99.90
23124;DHT22;11731;48.592;8.858;2023-04-03T03:53:15;4.20;99.90
23124;DHT22;11731;48.592;8.858;2023-04-03T03:55:43;4.50;99.90
23124;DHT22;11731;48.592;8.858;2023-04-03T04:04:07;4.50;99.90
23124;DHT22;11731;48.592;8.858;2023-04-03T04:06:34;4.50;99.90
23124;DHT22;11731;48.592;8.858;2023-04-03T04:09:01;4.50;99.90
23124;DHT22;11731;48.592;8.858;2023-04-03T04:11:43;4.70;99.90
23124;DHT22;11731;48.592;8.858;2023-04-03T04:15:34;4.50;99.90
23124;DHT22;11731;48.592;8.858;2023-04-03T04:17:33;4.60;99.90
23124;DHT22;11731;48.592;8.858;2023-04-03T04:26:28;4.70;99.90
23124;DHT22;11731;48.592;8.858;2023-04-03T04:28:55;4.70;99.90
23124;DHT22;11731;48.592;8.858;2023-04-03T04:31:22;4.80;99.90
23124;DHT22;11731;48.592;8.858;2023-04-03T04:33:49;4.60;99.90
23124;DHT22;11731;48.592;8.858;2023-04-03T04:36:17;4.60;99.90
23124;DHT22;11731;48.592;8.858;2023-04-03T04:38:46;4.80;99.90
23124;DHT22;11731;48.592;8.858;2023-04-03T04:41:13;5.00;99.90
23124;DHT22;11731;48.592;8.858;2023-04-03T04:43:43;5.00;99.90
23124;DHT22;11731;48.592;8.858;2023-04-03T04:46:21;5.00;99.90
23124;DHT22;11731;48.592;8.858;2023-04-03T04:48:48;5.00;99.90
23124;DHT22;11731;48.592;8.858;2023-04-03T04:51:15;5.00;99.90
23124;DHT22;11731;48.592;8.858;2023-04-03T04:53:42;5.00;99.90
23124;DHT22;11731;48.592;8.858;2023-04-03T04:56:10;5.10;99.90
23124;DHT22;11731;48.592;8.858;2023-04-03T04:58:37;5.20;99.90
23124;DHT22;11731;48.592;8.858;2023-04-03T05:04:22;4.90;99.90
23124;DHT22;11731;48.592;8.858;2023-04-03T05:06:49;4.80;99.90
23124;DHT22;11731;48.592;8.858;2023-04-03T05:09:16;4.80;99.90
23124;DHT22;11731;48.592;8.858;2023-04-03T05:11:45;5.00;99.90
23124;DHT22;11731;48.592;8.858;2023-04-03T05:14:12;5.10;99.90
23124;DHT22;11731;48.592;8.858;2023-04-03T05:16:39;5.20;99.90
23124;DHT22;11731;48.592;8.858;2023-04-03T05:19:06;5.50;99.90
23124;DHT22;11731;48.592;8.858;2023-04-03T05:21:37;5.80;99.90
23124;DHT22;11731;48.592;8.858;2023-04-03T05:24:05;5.60;99.90
23124;DHT22;11731;48.592;8.858;2023-04-03T05:26:42;6.00;99.90
23124;DHT22;11731;48.592;8.858;2023-04-03T05:32:09;5.80;99.90
23124;DHT22;11731;48.592;8.858;2023-04-03T05:34:37;5.80;99.60
23124;DHT22;11731;48.592;8.858;2023-04-03T05:37:05;5.90;99.10
23124;DHT22;11731;48.592;8.858;2023-04-03T05:39:33;5.80;99.30
23124;DHT22;11731;48.592;8.858;2023-04-03T05:42:00;5.80;98.90
23124;DHT22;11731;48.592;8.858;2023-04-03T05:44:27;5.70;99.10
23124;DHT22;11731;48.592;8.858;2023-04-03T05:46:53;5.80;99.00
23124;DHT22;11731;48.592;8.858;2023-04-03T05:49:20;5.70;99.10
23124;DHT22;11731;48.592;8.858;2023-04-03T05:51:47;5.60;99.00
23124;DHT22;11731;48.592;8.858;2023-04-03T05:54:18;5.40;98.90
23124;DHT22;11731;48.592;8.858;2023-04-03T05:56:46;5.50;99.10
23124;DHT22;11731;48.592;8.858;2023-04-03T06:02:47;6.00;97.20
23124;DHT22;11731;48.592;8.858;2023-04-03T06:05:17;6.10;98.20
23124;DHT22;11731;48.592;8.858;2023-04-03T06:07:44;5.80;97.10
23124;DHT22;11731;48.592;8.858;2023-04-03T06:10:13;5.80;97.40
23124;DHT22;11731;48.592;8.858;2023-04-03T06:12:40;6.00;97.40
23124;DHT22;11731;48.592;8.858;2023-04-03T06:15:08;6.10;96.70
23124;DHT22;11731;48.592;8.858;2023-04-03T06:17:35;6.20;97.30
23124;DHT22;11731;48.592;8.858;2023-04-03T06:20:04;6.60;97.00
23124;DHT22;11731;48.592;8.858;2023-04-03T06:22:31;6.80;96.80
23124;DHT22;11731;48.592;8.858;2023-04-03T06:24:57;6.90;96.30
23124;DHT22;11731;48.592;8.858;2023-04-03T06:27:34;7.10;96.20
23124;DHT22;11731;48.592;8.858;2023-04-03T06:30:01;6.60;95.00
23124;DHT22;11731;48.592;8.858;2023-04-03T06:32:28;6.50;95.60
23124;DHT22;11731;48.592;8.858;2023-04-03T06:34:55;6.70;95.50
23124;DHT22;11731;48.592;8.858;2023-04-03T06:37:38;6.90;95.40
23124;DHT22;11731;48.592;8.858;2023-04-03T06:40:06;6.90;95.30
23124;DHT22;11731;48.592;8.858;2023-04-03T06:42:35;6.90;95.40
23124;DHT22;11731;48.592;8.858;2023-04-03T06:45:02;7.00;94.60
23124;DHT22;11731;48.592;8.858;2023-04-03T06:47:29;6.80;94.70
23124;DHT22;11731;48.592;8.858;2023-04-03T06:49:56;6.20;94.60
23124;DHT22;11731;48.592;8.858;2023-04-03T06:52:23;6.10;95.60
23124;DHT22;11731;48.592;8.858;2023-04-03T06:54:50;6.10;95.30
23124;DHT22;11731;48.592;8.858;2023-04-03T06:57:22;6.10;96.10
23124;DHT22;11731;48.592;8.858;2023-04-03T06:59:54;6.00;96.00
23124;DHT22;11731;48.592;8.858;2023-04-03T07:02:43;6.00;96.90
23124;DHT22;11731;48.592;8.858;2023-04-03T07:05:20;6.00;96.90
23124;DHT22;11731;48.592;8.858;2023-04-03T07:07:47;6.00;97.30
23124;DHT22;11731;48.592;8.858;2023-04-03T07:10:17;6.00;96.50
23124;DHT22;11731;48.592;8.858;2023-04-03T07:12:50;6.10;96.70
23124;DHT22;11731;48.592;8.858;2023-04-03T07:18:34;6.10;96.00
23124;DHT22;11731;48.592;8.858;2023-04-03T07:21:02;6.20;96.80
23124;DHT22;11731;48.592;8.858;2023-04-03T07:23:29;6.30;96.60
23124;DHT22;11731;48.592;8.858;2023-04-03T07:26:17;6.50;95.80
23124;DHT22;11731;48.592;8.858;2023-04-03T07:28:46;6.70;95.50
23124;DHT22;11731;48.592;8.858;2023-04-03T07:31:14;7.00;95.70
23124;DHT22;11731;48.592;8.858;2023-04-03T07:33:44;7.10;95.00
23124;DHT22;11731;48.592;8.858;2023-04-03T07:36:16;6.80;95.70
23124;DHT22;11731;48.592;8.858;2023-04-03T07:38:52;7.20;95.20
23124;DHT22;11731;48.592;8.858;2023-04-03T07:41:33;7.10;95.40
23124;DHT22;11731;48.592;8.858;2023-04-03T07:44:14;6.90;96.10
23124;DHT22;11731;48.592;8.858;2023-04-03T07:46:41;6.90;95.80
23124;DHT22;11731;48.592;8.858;2023-04-03T07:49:10;7.30;96.30
23124;DHT22;11731;48.592;8.858;2023-04-03T07:51:36;7.30;95.90
23124;DHT22;11731;48.592;8.858;2023-04-03T07:54:03;7.30;95.70
23124;DHT22;11731;48.592;8.858;2023-04-03T07:56:30;6.90;95.90
23124;DHT22;11731;48.592;8.858;2023-04-03T07:58:57;6.90;95.80
23124;DHT22;11731;48.592;8.858;2023-04-03T08:01:24;6.90;96.00
23124;DHT22;11731;48.592;8.858;2023-04-03T08:03:51;7.10;95.70
23124;DHT22;11731;48.592;8.858;2023-04-03T08:06:19;7.20;96.00
23124;DHT22;11731;48.592;8.858;2023-04-03T08:08:46;7.20;95.50
23124;DHT22;11731;48.592;8.858;2023-04-03T08:11:13;7.00;95.70
23124;DHT22;11731;48.592;8.858;2023-04-03T08:13:40;7.10;96.70
23124;DHT22;11731;48.592;8.858;2023-04-03T08:16:10;7.30;95.80
23124;DHT22;11731;48.592;8.858;2023-04-03T08:18:37;7.30;95.60
23124;DHT22;11731;48.592;8.858;2023-04-03T08:21:06;7.30;95.10
23124;DHT22;11731;48.592;8.858;2023-04-03T08:23:35;7.30;95.20
23124;DHT22;11731;48.592;8.858;2023-04-03T08:26:20;7.60;95.00
23124;DHT22;11731;48.592;8.858;2023-04-03T08:28:51;7.40;95.10
23124;DHT22;11731;48.592;8.858;2023-04-03T08:31:19;7.50;95.30
23124;DHT22;11731;48.592;8.858;2023-04-03T08:33:47;7.90;95.00
23124;DHT22;11731;48.592;8.858;2023-04-03T08:36:19;7.60;94.80
23124;DHT22;11731;48.592;8.858;2023-04-03T08:38:49;7.50;95.60
23124;DHT22;11731;48.592;8.858;2023-04-03T08:41:20;7.60;94.80
23124;DHT22;11731;48.592;8.858;2023-04-03T08:44:09;7.70;94.70
23124;DHT22;11731;48.592;8.858;2023-04-03T08:46:50;7.50;95.10
23124;DHT22;11731;48.592;8.858;2023-04-03T08:49:24;7.40;95.40
23124;DHT22;11731;48.592;8.858;2023-04-03T08:51:53;7.60;95.80
23124;DHT22;11731;48.592;8.858;2023-04-03T08:54:28;7.70;94.80
23124;DHT22;11731;48.592;8.858;2023-04-03T08:56:56;7.60;95.10
23124;DHT22;11731;48.592;8.858;2023-04-03T08:59:27;7.30;95.20
23124;DHT22;11731;48.592;8.858;2023-04-03T09:01:56;7.40;94.80
23124;DHT22;11731;48.592;8.858;2023-04-03T09:04:26;7.40;94.90
23124;DHT22;11731;48.592;8.858;2023-04-03T09:06:57;7.90;94.70
23124;DHT22;11731;48.592;8.858;2023-04-03T09:09:31;8.20;94.60
23124;DHT22;11731;48.592;8.858;2023-04-03T09:12:06;8.50;94.10
23124;DHT22;11731;48.592;8.858;2023-04-03T09:14:42;8.80;92.10
23124;DHT22;11731;48.592;8.858;2023-04-03T09:17:16;8.60;92.30
23124;DHT22;11731;48.592;8.858;2023-04-03T09:19:51;8.60;92.90
23124;DHT22;11731;48.592;8.858;2023-04-03T09:22:23;8.80;93.70
23124;DHT22;11731;48.592;8.858;2023-04-03T09:24:57;8.70;93.80
23124;DHT22;11731;48.592;8.858;2023-04-03T09:27:25;8.70;94.60
23124;DHT22;11731;48.592;8.858;2023-04-03T09:29:54;8.60;92.70
23124;DHT22;11731;48.592;8.858;2023-04-03T09:32:27;8.20;93.00
23124;DHT22;11731;48.592;8.858;2023-04-03T09:34:56;8.10;94.00
23124;DHT22;11731;48.592;8.858;2023-04-03T09:37:35;8.40;93.30
23124;DHT22;11731;48.592;8.858;2023-04-03T09:40:12;8.40;92.70
23124;DHT22;11731;48.592;8.858;2023-04-03T09:42:56;8.10;92.80
23124;DHT22;11731;48.592;8.858;2023-04-03T09:45:25;7.80;93.60
23124;DHT22;11731;48.592;8.858;2023-04-03T09:48:05;7.70;92.90
23124;DHT22;11731;48.592;8.858;2023-04-03T09:50:33;7.50;93.40
23124;DHT22;11731;48.592;8.858;2023-04-03T09:53:05;7.50;94.20
23124;DHT22;11731;48.592;8.858;2023-04-03T09:55:42;8.00;93.30
23124;DHT22;11731;48.592;8.858;2023-04-03T09:58:24;8.10;93.10
23124;DHT22;11731;48.592;8.858;2023-04-03T10:00:55;8.20;93.50
23124;DHT22;11731;48.592;8.858;2023-04-03T10:03:25;8.70;93.00
23124;DHT22;11731;48.592;8.858;2023-04-03T10:05:53;8.70;92.40
23124;DHT22;11731;48.592;8.858;2023-04-03T10:08:24;8.60;92.60
23124;DHT22;11731;48.592;8.858;2023-04-03T10:11:14;8.90;92.50
23124;DHT22;11731;48.592;8.858;2023-04-03T10:13:53;8.50;93.50
23124;DHT22;11731;48.592;8.858;2023-04-03T10:16:25;8.30;93.80
23124;DHT22;11731;48.592;8.858;2023-04-03T10:19:05;8.20;93.80
23124;DHT22;11731;48.592;8.858;2023-04-03T10:21:40;7.70;94.50
23124;DHT22;11731;48.592;8.858;2023-04-03T10:24:11;7.60;94.30
23124;DHT22;11731;48.592;8.858;2023-04-03T10:26:48;7.60;94.50
23124;DHT22;11731;48.592;8.858;2023-04-03T10:29:29;7.50;94.90
23124;DHT22;11731;48.592;8.858;2023-04-03T10:32:07;7.30;95.00
23124;DHT22;11731;48.592;8.858;2023-04-03T10:34:41;6.90;95.30
23124;DHT22;11731;48.592;8.858;2023-04-03T10:37:16;7.30;95.60
23124;DHT22;11731;48.592;8.858;2023-04-03T10:39:52;7.40;95.60
23124;DHT22;11731;48.592;8.858;2023-04-03T10:42:27;7.80;94.10
23124;DHT22;11731;48.592;8.858;2023-04-03T10:45:19;8.00;94.20
23124;DHT22;11731;48.592;8.858;2023-04-03T10:47:56;8.00;93.00
23124;DHT22;11731;48.592;8.858;2023-04-03T10:50:36;8.20;92.50
23124;DHT22;11731;48.592;8.858;2023-04-03T10:53:08;8.10;92.10
23124;DHT22;11731;48.592;8.858;2023-04-03T10:55:45;8.30;92.80
23124;DHT22;11731;48.592;8.858;2023-04-03T10:58:18;8.80;91.90
23124;DHT22;11731;48.592;8.858;2023-04-03T11:00:49;9.20;91.60
23124;DHT22;11731;48.592;8.858;2023-04-03T11:03:27;8.90;91.10
23124;DHT22;11731;48.592;8.858;2023-04-03T11:05:57;8.40;91.10
23124;DHT22;11731;48.592;8.858;2023-04-03T11:08:29;8.40;91.00
23124;DHT22;11731;48.592;8.858;2023-04-03T11:11:01;8.40;91.30
23124;DHT22;11731;48.592;8.858;2023-04-03T11:13:36;8.30;91.60
23124;DHT22;11731;48.592;8.858;2023-04-03T11:16:05;8.40;92.90
23124;DHT22;11731;48.592;8.858;2023-04-03T11:18:37;8.40;92.50
23124;DHT22;11731;48.592;8.858;2023-04-03T11:21:09;8.00;92.80
23124;DHT22;11731;48.592;8.858;2023-04-03T11:23:39;7.40;93.70
23124;DHT22;11731;48.592;8.858;2023-04-03T11:26:10;7.40;94.20
23124;DHT22;11731;48.592;8.858;2023-04-03T11:28:39;7.40;93.80
23124;DHT22;11731;48.592;8.858;2023-04-03T11:31:16;7.50;93.60
23124;DHT22;11731;48.592;8.858;2023-04-03T11:33:51;8.00;92.80
23124;DHT22;11731;48.592;8.858;2023-04-03T11:36:24;8.20;92.60
23124;DHT22;11731;48.592;8.858;2023-04-03T11:38:53;8.30;92.10
23124;DHT22;11731;48.592;8.858;2023-04-03T11:41:27;8.70;92.60
23124;DHT22;11731;48.592;8.858;2023-04-03T11:44:01;8.70;90.00
23124;DHT22;11731;48.592;8.858;2023-04-03T11:46:51;8.70;90.20
23124;DHT22;11731;48.592;8.858;2023-04-03T11:49:56;8.50;92.00
23124;DHT22;11731;48.592;8.858;2023-04-03T11:55:53;8.50;92.20
23124;DHT22;11731;48.592;8.858;2023-04-03T11:58:22;8.10;92.50
23124;DHT22;11731;48.592;8.858;2023-04-03T12:01:09;8.30;92.90
23124;DHT22;11731;48.592;8.858;2023-04-03T12:10:02;8.90;92.20
23124;DHT22;11731;48.592;8.858;2023-04-03T12:12:32;8.60;92.10
23124;DHT22;11731;48.592;8.858;2023-04-03T12:15:20;8.30;92.10
23124;DHT22;11731;48.592;8.858;2023-04-03T12:17:49;8.30;92.60
23124;DHT22;11731;48.592;8.858;2023-04-03T12:20:55;7.80;92.60
23124;DHT22;11731;48.592;8.858;2023-04-03T12:23:30;7.90;93.10
23124;DHT22;11731;48.592;8.858;2023-04-03T12:26:05;7.80;93.40
23124;DHT22;11731;48.592;8.858;2023-04-03T12:28:39;8.10;92.80
23124;DHT22;11731;48.592;8.858;2023-04-03T12:31:09;7.80;92.70
23124;DHT22;11731;48.592;8.858;2023-04-03T12:33:51;7.50;92.50
23124;DHT22;11731;48.592;8.858;2023-04-03T12:36:30;7.90;93.20
23124;DHT22;11731;48.592;8.858;2023-04-03T12:39:05;8.10;92.10
23124;DHT22;11731;48.592;8.858;2023-04-03T12:41:40;8.30;92.30
23124;DHT22;11731;48.592;8.858;2023-04-03T12:44:31;8.30;92.30
23124;DHT22;11731;48.592;8.858;2023-04-03T12:47:16;8.40;90.90
23124;DHT22;11731;48.592;8.858;2023-04-03T12:49:48;8.30;91.50
23124;DHT22;11731;48.592;8.858;2023-04-03T12:52:20;8.60;90.60
23124;DHT22;11731;48.592;8.858;2023-04-03T12:54:50;8.40;90.90
23124;DHT22;11731;48.592;8.858;2023-04-03T12:57:19;8.30;88.10
23124;DHT22;11731;48.592;8.858;2023-04-03T12:59:47;8.60;89.30
23124;DHT22;11731;48.592;8.858;2023-04-03T13:02:23;8.90;90.00
23124;DHT22;11731;48.592;8.858;2023-04-03T13:04:53;8.50;89.70
23124;DHT22;11731;48.592;8.858;2023-04-03T13:07:25;8.20;90.50
23124;DHT22;11731;48.592;8.858;2023-04-03T13:10:03;8.30;90.90
23124;DHT22;11731;48.592;8.858;2023-04-03T13:12:31;8.50;90.60
23124;DHT22;11731;48.592;8.858;2023-04-03T13:14:59;8.10;90.80
23124;DHT22;11731;48.592;8.858;2023-04-03T13:17:28;8.20;90.70
23124;DHT22;11731;48.592;8.858;2023-04-03T13:20:10;7.70;90.60
23124;DHT22;11731;48.592;8.858;2023-04-03T13:22:39;7.30;91.60
23124;DHT22;11731;48.592;8.858;2023-04-03T13:25:12;7.40;92.40
23124;DHT22;11731;48.592;8.858;2023-04-03T13:27:40;7.80;91.70
23124;DHT22;11731;48.592;8.858;2023-04-03T13:30:29;8.20;90.80
23124;DHT22;11731;48.592;8.858;2023-04-03T13:32:58;8.70;90.40
23124;DHT22;11731;48.592;8.858;2023-04-03T13:35:31;8.60;89.30
23124;DHT22;11731;48.592;8.858;2023-04-03T13:38:01;8.70;90.30
23124;DHT22;11731;48.592;8.858;2023-04-03T13:40:28;8.40;90.40
23124;DHT22;11731;48.592;8.858;2023-04-03T13:43:03;8.40;90.00
23124;DHT22;11731;48.592;8.858;2023-04-03T13:45:32;8.70;90.50
23124;DHT22;11731;48.592;8.858;2023-04-03T13:48:17;8.30;90.00
23124;DHT22;11731;48.592;8.858;2023-04-03T13:50:54;8.20;90.00
23124;DHT22;11731;48.592;8.858;2023-04-03T13:53:22;8.40;90.10
23124;DHT22;11731;48.592;8.858;2023-04-03T13:55:56;8.20;89.80
23124;DHT22;11731;48.592;8.858;2023-04-03T13:58:25;8.00;90.30
23124;DHT22;11731;48.592;8.858;2023-04-03T14:00:54;8.20;90.20
23124;DHT22;11731;48.592;8.858;2023-04-03T14:03:24;8.40;90.20
23124;DHT22;11731;48.592;8.858;2023-04-03T14:05:53;8.50;90.20
23124;DHT22;11731;48.592;8.858;2023-04-03T14:08:20;8.80;90.30
23124;DHT22;11731;48.592;8.858;2023-04-03T14:10:47;9.00;89.50
23124;DHT22;11731;48.592;8.858;2023-04-03T14:13:17;9.40;86.60
23124;DHT22;11731;48.592;8.858;2023-04-03T14:15:46;9.20;86.80
23124;DHT22;11731;48.592;8.858;2023-04-03T14:18:15;9.20;87.10
23124;DHT22;11731;48.592;8.858;2023-04-03T14:20:42;9.40;86.90
23124;DHT22;11731;48.592;8.858;2023-04-03T14:23:11;9.10;85.90
23124;DHT22;11731;48.592;8.858;2023-04-03T14:25:38;8.80;85.60
23124;DHT22;11731;48.592;8.858;2023-04-03T14:28:14;8.50;85.80
23124;DHT22;11731;48.592;8.858;2023-04-03T14:30:42;8.50;86.60
23124;DHT22;11731;48.592;8.858;2023-04-03T14:33:13;8.50;86.70
23124;DHT22;11731;48.592;8.858;2023-04-03T14:35:40;8.80;85.50
23124;DHT22;11731;48.592;8.858;2023-04-03T14:38:21;8.60;85.50
23124;DHT22;11731;48.592;8.858;2023-04-03T14:40:49;8.30;87.90
23124;DHT22;11731;48.592;8.858;2023-04-03T14:43:16;8.20;88.80
23124;DHT22;11731;48.592;8.858;2023-04-03T14:45:43;7.90;88.00
23124;DHT22;11731;48.592;8.858;2023-04-03T14:48:16;8.10;89.00
23124;DHT22;11731;48.592;8.858;2023-04-03T14:50:44;8.20;87.00
23124;DHT22;11731;48.592;8.858;2023-04-03T14:53:13;8.40;87.90
23124;DHT22;11731;48.592;8.858;2023-04-03T14:55:42;8.30;87.10
23124;DHT22;11731;48.592;8.858;2023-04-03T14:58:13;8.10;86.10
23124;DHT22;11731;48.592;8.858;2023-04-03T15:00:47;8.30;86.10
23124;DHT22;11731;48.592;8.858;2023-04-03T15:03:24;8.60;82.80
23124;DHT22;11731;48.592;8.858;2023-04-03T15:05:52;8.50;82.80
23124;DHT22;11731;48.592;8.858;2023-04-03T15:08:35;8.90;84.60
23124;DHT22;11731;48.592;8.858;2023-04-03T15:11:07;9.10;83.20
23124;DHT22;11731;48.592;8.858;2023-04-03T15:13:37;8.90;83.20
23124;DHT22;11731;48.592;8.858;2023-04-03T15:16:05;8.80;84.10
23124;DHT22;11731;48.592;8.858;2023-04-03T15:18:37;8.20;84.70
23124;DHT22;11731;48.592;8.858;2023-04-03T15:21:04;8.00;86.30
23124;DHT22;11731;48.592;8.858;2023-04-03T15:23:33;7.80;86.80
23124;DHT22;11731;48.592;8.858;2023-04-03T15:26:00;7.50;87.40
23124;DHT22;11731;48.592;8.858;2023-04-03T15:28:28;7.60;88.60
23124;DHT22;11731;48.592;8.858;2023-04-03T15:30:56;8.10;90.10
23124;DHT22;11731;48.592;8.858;2023-04-03T15:33:23;8.20;90.00
23124;DHT22;11731;48.592;8.858;2023-04-03T15:35:50;8.10;87.90
23124;DHT22;11731;48.592;8.858;2023-04-03T15:38:17;7.90;88.20
23124;DHT22;11731;48.592;8.858;2023-04-03T15:40:46;8.00;86.90
23124;DHT22;11731;48.592;8.858;2023-04-03T15:43:14;7.90;87.20
23124;DHT22;11731;48.592;8.858;2023-04-03T15:45:41;7.80;86.90
23124;DHT22;11731;48.592;8.858;2023-04-03T15:48:09;7.70;88.00
23124;DHT22;11731;48.592;8.858;2023-04-03T15:50:37;7.50;86.50
23124;DHT22;11731;48.592;8.858;2023-04-03T15:53:04;7.70;86.70
23124;DHT22;11731;48.592;8.858;2023-04-03T15:55:32;8.10;86.00
23124;DHT22;11731;48.592;8.858;2023-04-03T15:58:01;8.80;84.10
23124;DHT22;11731;48.592;8.858;2023-04-03T16:00:33;9.10;84.00
23124;DHT22;11731;48.592;8.858;2023-04-03T16:03:05;9.30;83.70
23124;DHT22;11731;48.592;8.858;2023-04-03T16:05:53;9.30;82.70
23124;DHT22;11731;48.592;8.858;2023-04-03T16:08:20;9.00;84.30
23124;DHT22;11731;48.592;8.858;2023-04-03T16:10:47;8.70;83.60
23124;DHT22;11731;48.592;8.858;2023-04-03T16:13:30;8.30;83.60
23124;DHT22;11731;48.592;8.858;2023-04-03T16:16:02;8.10;85.70
23124;DHT22;11731;48.592;8.858;2023-04-03T16:18:30;8.30;84.80
23124;DHT22;11731;48.592;8.858;2023-04-03T16:21:02;8.20;84.60
23124;DHT22;11731;48.592;8.858;2023-04-03T16:23:29;8.40;85.20
23124;DHT22;11731;48.592;8.858;2023-04-03T16:25:56;8.20;84.60
23124;DHT22;11731;48.592;8.858;2023-04-03T16:28:26;8.00;84.30
23124;DHT22;11731;48.592;8.858;2023-04-03T16:30:53;7.80;84.00
23124;DHT22;11731;48.592;8.858;2023-04-03T16:33:21;7.70;84.60
23124;DHT22;11731;48.592;8.858;2023-04-03T16:35:48;7.60;83.50
23124;DHT22;11731;48.592;8.858;2023-04-03T16:38:17;7.90;83.30
23124;DHT22;11731;48.592;8.858;2023-04-03T16:40:45;7.70;83.30
23124;DHT22;11731;48.592;8.858;2023-04-03T16:43:14;7.50;84.70
23124;DHT22;11731;48.592;8.858;2023-04-03T16:45:42;7.50;84.20
23124;DHT22;11731;48.592;8.858;2023-04-03T16:48:09;7.30;84.20
23124;DHT22;11731;48.592;8.858;2023-04-03T16:50:36;7.40;84.00
23124;DHT22;11731;48.592;8.858;2023-04-03T16:53:03;7.50;85.10
23124;DHT22;11731;48.592;8.858;2023-04-03T16:55:33;7.70;83.90